FAO weather

Faro Airport
Faro, Faro District, Portugal

Public forecast

Using degrees Celsius for public forecast. Weather courtesy of forecast.io.

METAR (pilot weather report)

Retrieved 2019/05/19 16:30 UTC (4 minutes ago):

LPFR 191630Z 25017KT 9999 FEW024 19/15 Q1013

TAF (pilot weather forecast)

Retrieved 2019/05/19 12:18 UTC (4 hours ago):

TAF LPFR 191110Z 1912/2012 24015KT 9999 SCT025 PROB30 TEMPO 1914/1918 25020G30KT BECMG 1918/1921 31012KT CAVOK BECMG 2000/2003 VRB03KT BECMG 2006/2008 30008KT BECMG 2009/2012 25015KT